Time;durP1;ratioP1;P1;durP2;ratioP2;P2;SDS_P1;SDS_P2;PMS_P1;PMS_P2;Temp;Humidity;BMP_temperature;BMP_pressure;BME280_temperature;BME280_humidity;BME280_pressure;Samples;Min_cycle;Max_cycle;Signal;HPM_P1;HPM_P2
2022/10/13 00:01:21;;;;;;;17.83;3.45;;;;;;;11.85;100.00;101734.34;4938183;29;20592;-71
2022/10/13 00:03:47;;;;;;;17.35;3.22;;;;;;;11.80;100.00;101735.91;4955357;29;20031;-72
2022/10/13 00:06:16;;;;;;;22.85;3.10;;;;;;;11.75;100.00;101731.91;4955810;28;20031;-72
2022/10/13 00:08:41;;;;;;;21.05;3.00;;;;;;;11.75;100.00;101731.03;4938119;29;20059;-72
2022/10/13 00:11:22;;;;;;;16.00;2.97;;;;;;;11.69;100.00;101729.94;4955250;28;20126;-72
2022/10/13 00:14:08;;;;;;;23.83;3.55;;;;;;;11.69;100.00;101732.63;4955323;28;20042;-72
2022/10/13 00:16:33;;;;;;;13.93;2.88;;;;;;;11.45;100.00;101695.13;4934054;29;20043;-71
2022/10/13 00:18:59;;;;;;;10.88;2.90;;;;;;;11.63;100.00;101717.19;4934043;29;20545;-71
2022/10/13 00:21:26;;;;;;;13.25;3.05;;;;;;;11.67;100.00;101720.34;4901824;29;20054;-72
2022/10/13 00:23:52;;;;;;;16.52;3.10;;;;;;;11.67;100.00;101723.88;4914420;29;20038;-71
2022/10/13 00:26:19;;;;;;;17.10;3.00;;;;;;;11.68;100.00;101720.16;4924195;29;20095;-71
2022/10/13 00:28:45;;;;;;;13.88;2.70;;;;;;;11.50;100.00;101692.72;4914330;29;20502;-71
2022/10/13 00:31:19;;;;;;;18.27;2.80;;;;;;;11.67;100.00;101721.19;4899308;29;20073;-72
2022/10/13 00:33:44;;;;;;;20.90;3.00;;;;;;;11.71;100.00;101718.97;4933301;29;20034;-71
2022/10/13 00:36:10;;;;;;;18.00;2.83;;;;;;;11.66;100.00;101711.44;4933454;29;20043;-71
2022/10/13 00:38:36;;;;;;;19.30;3.25;;;;;;;11.75;100.00;101721.13;4917623;29;20036;-71
2022/10/13 00:41:01;;;;;;;19.60;3.55;;;;;;;11.76;100.00;101717.41;4933381;29;20518;-72
2022/10/13 00:43:46;;;;;;;14.63;2.88;;;;;;;11.71;100.00;101700.09;4914294;29;20079;-71
2022/10/13 00:46:12;;;;;;;;;;;;;;;11.74;100.00;101708.63;4923675;29;20047;-71
2022/10/13 00:48:38;;;;;;;18.58;3.00;;;;;;;11.75;100.00;101712.16;4953423;29;19925;-71
2022/10/13 00:51:04;;;;;;;15.77;2.75;;;;;;;11.76;100.00;101709.31;4954417;29;20066;-71
2022/10/13 00:53:34;;;;;;;20.27;3.40;;;;;;;11.80;100.00;101695.47;4937155;29;20035;-71
2022/10/13 00:56:00;;;;;;;21.88;3.47;;;;;;;11.81;100.00;101697.94;4936751;28;20034;-71
2022/10/13 00:58:30;;;;;;;16.58;3.17;;;;;;;11.84;100.00;101692.22;4953571;29;20046;-71
2022/10/13 01:00:56;;;;;;;20.10;3.03;;;;;;;11.84;100.00;101692.22;4954419;29;20574;-72
2022/10/13 01:03:23;;;;;;;19.85;3.35;;;;;;;11.80;100.00;101674.72;4936509;29;20149;-72
2022/10/13 01:05:51;;;;;;;21.63;3.90;;;;;;;11.74;100.00;101665.50;4954166;29;20039;-71
2022/10/13 01:08:18;;;;;;;21.25;3.47;;;;;;;11.94;100.00;101691.94;4954150;29;20039;-72
2022/10/13 01:11:13;;;;;;;20.92;3.55;;;;;;;11.84;100.00;101667.94;4954149;29;20484;-71
2022/10/13 01:14:10;;;;;;;19.08;3.50;;;;;;;11.97;100.00;101688.88;4932937;29;20499;-71
2022/10/13 01:17:17;;;;;;;22.60;3.95;;;;;;;11.98;100.00;101682.44;4947318;29;20435;-71
2022/10/13 01:20:08;;;;;;;19.52;3.30;;;;;;;11.96;100.00;101676.44;4923172;29;20028;-72
2022/10/13 01:22:42;;;;;;;19.50;3.70;;;;;;;11.97;100.00;101675.41;4937088;29;20035;-71
2022/10/13 01:25:43;;;;;;;19.90;3.70;;;;;;;11.99;100.00;101663.41;4953917;29;20532;-71
2022/10/13 01:28:33;;;;;;;21.67;3.80;;;;;;;12.02;100.00;101669.44;4953982;29;20047;-71
2022/10/13 01:31:13;;;;;;;20.83;3.83;;;;;;;11.98;100.00;101656.31;4936594;29;20042;-71
2022/10/13 01:34:01;;;;;;;18.55;3.67;;;;;;;12.00;100.00;101658.84;4923208;29;20062;-71
2022/10/13 01:36:33;;;;;;;21.25;3.88;;;;;;;12.02;100.00;101645.16;4937440;29;20035;-71
2022/10/13 01:38:58;;;;;;;18.02;3.85;;;;;;;12.04;100.00;101648.50;4954396;29;20031;-71
2022/10/13 01:41:45;;;;;;;15.57;3.58;;;;;;;12.04;100.00;101643.13;4954142;29;20512;-72
2022/10/13 01:44:19;;;;;;;17.13;4.07;;;;;;;12.06;100.00;101638.38;4937190;29;20490;-71
2022/10/13 01:46:47;;;;;;;;;;;;;;;12.07;100.00;101640.88;4937340;29;20045;-70
2022/10/13 01:49:15;;;;;;;22.63;3.90;;;;;;;12.03;100.00;101636.88;4954878;29;19914;-71
2022/10/13 01:51:42;;;;;;;27.08;4.43;;;;;;;12.06;100.00;101631.13;4954105;29;20035;-70
2022/10/13 01:54:07;;;;;;;26.45;4.60;;;;;;;12.08;100.00;101622.81;4954192;28;20050;-70
2022/10/13 01:56:33;;;;;;;20.73;3.63;;;;;;;12.07;100.00;101622.00;4937347;29;20039;-71
2022/10/13 01:59:03;;;;;;;23.50;4.03;;;;;;;12.06;100.00;101614.09;4936956;29;20036;-71
2022/10/13 02:01:45;;;;;;;23.50;4.32;;;;;;;12.09;100.00;101617.25;4938988;29;20034;-71
2022/10/13 02:04:49;;;;;;;22.10;3.38;;;;;;;12.13;100.00;101612.31;4954521;29;20439;-71
2022/10/13 02:07:22;;;;;;;20.85;3.65;;;;;;;12.14;100.00;101613.97;4895075;29;20653;-71
2022/10/13 02:10:19;;;;;;;22.10;4.18;;;;;;;12.17;100.00;101605.50;4900735;29;20048;-71
2022/10/13 02:12:49;;;;;;;20.38;3.97;;;;;;;12.18;100.00;101605.28;4901786;29;20443;-71
2022/10/13 02:15:20;;;;;;;22.38;4.57;;;;;;;12.21;100.00;101610.31;4885417;29;20504;-71
2022/10/13 02:17:46;;;;;;;16.58;3.78;;;;;;;12.23;100.00;101605.56;4901204;29;20459;-70
2022/10/13 02:20:14;;;;;;;26.23;4.07;;;;;;;12.26;100.00;101606.25;4883292;29;20037;-71
2022/10/13 02:22:45;;;;;;;26.67;5.07;;;;;;;12.26;100.00;101598.97;4895514;29;20127;-71
2022/10/13 02:25:11;;;;;;;20.92;4.82;;;;;;;12.24;100.00;101595.63;4901386;29;20117;-70
2022/10/13 02:27:36;;;;;;;26.42;4.85;;;;;;;12.27;100.00;101605.19;4871213;29;20045;-72
2022/10/13 02:30:03;;;;;;;31.13;5.32;;;;;;;12.26;100.00;101593.56;4854886;29;20064;-72
2022/10/13 02:32:29;;;;;;;19.25;4.65;;;;;;;12.09;100.00;101574.09;4901355;29;20116;-71
2022/10/13 02:34:54;;;;;;;29.77;4.97;;;;;;;12.23;100.00;101594.78;4902515;29;20037;-71
2022/10/13 02:37:19;;;;;;;22.95;4.15;;;;;;;12.27;100.00;101595.22;4907428;29;20040;-70
2022/10/13 02:39:45;;;;;;;22.55;4.47;;;;;;;12.17;100.00;101573.13;4940690;29;20105;-70
2022/10/13 02:42:10;;;;;;;23.67;4.50;;;;;;;12.29;100.00;101592.38;4922250;29;20047;-71
2022/10/13 02:44:36;;;;;;;20.88;4.75;;;;;;;12.29;100.00;101593.19;4933937;29;20036;-71
2022/10/13 02:47:01;;;;;;;22.10;4.90;;;;;;;12.30;100.00;101592.16;4941268;29;20039;-70
2022/10/13 02:49:27;;;;;;;25.40;4.40;;;;;;;12.23;100.00;101584.00;4941598;29;20027;-71
2022/10/13 02:51:52;;;;;;;18.95;4.45;;;;;;;12.29;100.00;101592.38;4940539;29;20558;-71
2022/10/13 02:54:19;;;;;;;23.13;4.20;;;;;;;12.21;100.00;101569.00;4905916;29;20116;-71
2022/10/13 02:56:44;;;;;;;30.38;4.90;;;;;;;12.26;100.00;101580.09;4918875;29;20034;-71
2022/10/13 02:59:09;;;;;;;23.63;4.35;;;;;;;12.26;100.00;101582.78;4941269;29;20027;-71
2022/10/13 03:01:40;;;;;;;33.45;4.63;;;;;;;12.19;100.00;101563.81;4941426;29;20099;-71
2022/10/13 03:04:06;;;;;;;28.63;4.82;;;;;;;12.20;100.00;101578.97;4924738;29;20511;-70
2022/10/13 03:06:31;;;;;;;24.77;4.55;;;;;;;12.20;100.00;101578.16;4924587;29;20127;-70
2022/10/13 03:08:56;;;;;;;25.27;4.47;;;;;;;12.02;100.00;101546.22;4941791;29;20078;-71
2022/10/13 03:11:22;;;;;;;22.67;4.03;;;;;;;12.12;100.00;101560.22;4924961;29;20035;-70
2022/10/13 03:13:47;;;;;;;26.15;4.28;;;;;;;12.17;100.00;101567.72;4908607;29;20031;-71
2022/10/13 03:16:13;;;;;;;21.55;4.13;;;;;;;12.11;100.00;101555.84;4941211;29;20036;-71
2022/10/13 03:18:38;;;;;;;30.88;4.20;;;;;;;12.14;100.00;101557.31;4905347;29;20517;-71
2022/10/13 03:21:05;;;;;;;23.70;4.45;;;;;;;12.11;100.00;101553.13;4933610;29;20122;-71
2022/10/13 03:23:31;;;;;;;25.08;4.38;;;;;;;12.08;100.00;101553.50;4923297;29;20035;-71
2022/10/13 03:25:57;;;;;;;26.60;4.00;;;;;;;12.05;100.00;101545.78;4950488;29;20512;-71
2022/10/13 03:28:23;;;;;;;30.30;4.82;;;;;;;12.05;100.00;101544.97;4957755;29;20035;-71
2022/10/13 03:30:48;;;;;;;18.85;3.63;;;;;;;12.01;100.00;101544.50;4958647;28;20034;-71
2022/10/13 03:33:14;;;;;;;24.58;4.53;;;;;;;11.98;100.00;101542.19;4957787;29;20795;-70
2022/10/13 03:35:39;;;;;;;18.38;3.25;;;;;;;11.87;100.00;101524.66;4958854;29;20058;-70
2022/10/13 03:38:05;;;;;;;21.52;3.97;;;;;;;11.83;100.00;101514.41;4922194;29;20040;-71
2022/10/13 03:40:30;;;;;;;27.17;4.18;;;;;;;11.97;100.00;101535.97;4940900;29;20035;-71
2022/10/13 03:42:55;;;;;;;29.00;4.43;;;;;;;11.92;100.00;101524.94;4957846;29;20046;-71
2022/10/13 03:45:21;;;;;;;22.55;4.03;;;;;;;11.98;100.00;101528.72;4956850;29;20043;-71
2022/10/13 03:47:46;;;;;;;22.60;4.10;;;;;;;11.79;100.00;101492.41;4957190;29;20026;-71
2022/10/13 03:50:12;;;;;;;24.08;4.00;;;;;;;11.94;100.00;101512.06;4957561;29;20405;-71
2022/10/13 03:52:40;;;;;;;24.08;4.45;;;;;;;11.98;100.00;101521.44;4940251;29;20111;-70
2022/10/13 03:55:05;;;;;;;17.20;3.70;;;;;;;11.99;100.00;101511.53;4921381;29;20036;-70
2022/10/13 03:57:31;;;;;;;22.80;4.25;;;;;;;11.83;100.00;101476.66;4940987;29;20035;-70
2022/10/13 03:59:56;;;;;;;25.13;3.90;;;;;;;11.96;100.00;101501.13;4939755;29;20035;-71
2022/10/13 04:02:23;;;;;;;23.10;3.90;;;;;;;11.99;100.00;101493.47;4938832;29;20502;-71
2022/10/13 04:04:49;;;;;;;24.10;3.78;;;;;;;12.01;100.00;101487.88;4955909;28;20180;-71
2022/10/13 04:07:15;;;;;;;34.13;5.07;;;;;;;12.01;100.00;101493.25;4955803;29;20121;-70
2022/10/13 04:09:40;;;;;;;17.80;3.60;;;;;;;12.02;100.00;101489.56;4956028;28;20031;-71
2022/10/13 04:12:06;;;;;;;22.75;4.10;;;;;;;11.92;100.00;101473.69;4956126;29;20466;-71
2022/10/13 04:14:31;;;;;;;17.80;3.50;;;;;;;11.99;100.00;101479.16;4955727;28;20074;-71
2022/10/13 04:16:56;;;;;;;21.48;3.85;;;;;;;12.07;100.00;101481.72;4939020;28;20043;-71
2022/10/13 04:19:22;;;;;;;29.17;4.15;;;;;;;12.06;100.00;101479.22;4958090;29;20042;-70
2022/10/13 04:21:48;;;;;;;17.63;4.47;;;;;;;12.09;100.00;101479.66;4907377;29;20410;-72
2022/10/13 04:24:14;;;;;;;20.50;3.78;;;;;;;12.10;100.00;101473.25;4939382;29;20031;-71
2022/10/13 04:26:40;;;;;;;24.13;3.72;;;;;;;12.05;100.00;101478.34;4956228;29;20055;-71
2022/10/13 04:29:09;;;;;;;25.38;3.97;;;;;;;12.04;100.00;101465.09;4920457;29;20059;-73
2022/10/13 04:31:34;;;;;;;20.20;3.78;;;;;;;12.10;100.00;101472.41;4956854;28;20055;-74
2022/10/13 04:34:00;;;;;;;26.38;3.88;;;;;;;12.06;100.00;101458.47;4959524;29;20054;-71
2022/10/13 04:36:26;;;;;;;21.70;3.63;;;;;;;12.04;100.00;101447.03;4940670;29;20424;-70
2022/10/13 04:38:53;;;;;;;22.15;3.45;;;;;;;12.11;100.00;101465.97;4957193;29;20070;-72
2022/10/13 04:41:19;;;;;;;22.10;4.13;;;;;;;12.10;100.00;101464.31;4940289;29;20086;-70
2022/10/13 04:43:51;;;;;;;20.98;3.80;;;;;;;12.10;100.00;101467.00;4941254;29;20039;-67
2022/10/13 04:46:21;;;;;;;20.27;3.45;;;;;;;12.11;100.00;101474.06;4953595;29;20496;-69
2022/10/13 04:48:46;;;;;;;20.90;3.70;;;;;;;12.11;100.00;101466.81;4940972;29;20135;-70
2022/10/13 04:51:15;;;;;;;17.92;4.10;;;;;;;12.12;100.00;101473.88;4939628;29;20050;-67
2022/10/13 04:53:40;;;;;;;26.67;4.00;;;;;;;12.13;100.00;101475.56;4956455;28;20470;-69
2022/10/13 04:56:09;;;;;;;17.55;3.33;;;;;;;12.11;100.00;101469.50;4939545;29;20041;-67
2022/10/13 04:58:36;;;;;;;20.60;3.63;;;;;;;12.14;100.00;101469.13;4956702;28;20031;-69
2022/10/13 05:01:03;;;;;;;19.60;3.65;;;;;;;12.12;100.00;101456.84;4937753;29;20498;-68
2022/10/13 05:03:29;;;;;;;20.60;3.90;;;;;;;12.18;100.00;101465.00;4954629;29;20057;-68
2022/10/13 05:05:55;;;;;;;20.65;3.92;;;;;;;12.21;100.00;101459.22;4954592;28;20046;-69
2022/10/13 05:08:20;;;;;;;20.08;4.07;;;;;;;12.23;100.00;101459.03;4937861;29;20039;-69
2022/10/13 05:11:00;;;;;;;25.27;3.92;;;;;;;12.25;100.00;101467.78;4954620;28;20110;-70
2022/10/13 05:13:27;;;;;;;20.10;3.90;;;;;;;12.25;100.00;101459.69;4954306;29;20057;-67
2022/10/13 05:15:52;;;;;;;28.17;4.50;;;;;;;12.26;100.00;101447.03;4937848;29;20019;-67
2022/10/13 05:18:18;;;;;;;19.02;3.95;;;;;;;12.19;100.00;101442.41;4954671;29;20486;-67
2022/10/13 05:20:44;;;;;;;20.15;3.80;;;;;;;12.25;100.00;101453.44;4937162;29;20027;-70
2022/10/13 05:23:12;;;;;;;25.27;4.05;;;;;;;12.27;100.00;101451.38;4952096;29;20031;-70
2022/10/13 05:25:38;;;;;;;24.30;4.18;;;;;;;12.26;100.00;101442.47;4954802;29;20050;-69
2022/10/13 05:28:04;;;;;;;18.75;3.97;;;;;;;11.99;100.00;101392.84;4956461;29;20039;-69
2022/10/13 05:30:31;;;;;;;19.27;4.20;;;;;;;12.27;100.00;101443.28;4940623;29;20086;-69
2022/10/13 05:32:57;;;;;;;23.83;4.40;;;;;;;12.26;100.00;101433.53;4939836;29;20047;-69
2022/10/13 05:35:22;;;;;;;20.33;3.60;;;;;;;12.20;100.00;101425.19;4956565;28;20035;-69
2022/10/13 05:37:48;;;;;;;21.90;3.90;;;;;;;12.13;100.00;101424.28;4938690;29;20458;-67
2022/10/13 05:40:14;;;;;;;18.83;3.45;;;;;;;12.18;100.00;101431.78;4937774;29;20114;-66
2022/10/13 05:42:39;;;;;;;21.60;4.57;;;;;;;12.05;100.00;101407.41;4921935;29;20036;-67
2022/10/13 05:45:08;;;;;;;23.67;3.50;;;;;;;12.18;100.00;101424.53;4921183;29;20035;-70
2022/10/13 05:47:34;;;;;;;19.75;3.60;;;;;;;12.02;100.00;101394.28;4940308;29;20043;-69
2022/10/13 05:49:59;;;;;;;22.20;4.38;;;;;;;12.17;100.00;101412.06;4938149;29;20048;-69
2022/10/13 05:52:26;;;;;;;19.67;3.90;;;;;;;12.20;100.00;101416.25;4939802;29;20532;-69
2022/10/13 05:54:56;;;;;;;19.60;4.57;;;;;;;12.18;100.00;101408.34;4957319;29;20028;-66
2022/10/13 05:57:31;;;;;;;19.08;3.85;;;;;;;12.19;100.00;101410.03;4957278;29;20054;-68
2022/10/13 06:00:07;;;;;;;22.35;4.00;;;;;;;12.20;100.00;101403.59;4957282;28;20154;-67
2022/10/13 06:02:58;;;;;;;21.15;4.20;;;;;;;12.10;100.00;101395.00;4956505;29;20043;-67
2022/10/13 06:05:26;;;;;;;18.70;3.90;;;;;;;12.20;100.00;101400.06;4954244;29;20063;-67
2022/10/13 06:07:53;;;;;;;21.15;3.45;;;;;;;12.17;100.00;101405.84;4935603;29;20102;-69
2022/10/13 06:10:19;;;;;;;17.92;3.78;;;;;;;12.18;100.00;101402.94;4953697;29;20027;-68
2022/10/13 06:12:45;;;;;;;15.40;3.38;;;;;;;12.18;100.00;101397.53;4935927;29;20126;-68
2022/10/13 06:15:10;;;;;;;23.75;3.58;;;;;;;12.18;100.00;101402.94;4952805;29;20398;-68
2022/10/13 06:17:37;;;;;;;25.05;4.20;;;;;;;12.06;100.00;101379.41;4935369;29;20035;-68
2022/10/13 06:20:04;;;;;;;16.85;3.55;;;;;;;12.18;100.00;101394.03;4952966;29;20039;-68
2022/10/13 06:22:31;;;;;;;26.15;4.28;;;;;;;12.21;100.00;101399.03;4952885;29;20038;-68
2022/10/13 06:24:56;;;;;;;21.55;3.85;;;;;;;12.19;100.00;101404.63;4952733;29;20556;-68
2022/10/13 06:27:22;;;;;;;17.30;3.33;;;;;;;12.12;100.00;101392.09;4917904;29;20130;-68
2022/10/13 06:29:47;;;;;;;22.90;4.13;;;;;;;12.28;100.00;101410.69;4952419;29;20035;-68
2022/10/13 06:32:12;;;;;;;17.80;3.75;;;;;;;12.29;100.00;101401.59;4952742;29;20118;-68
2022/10/13 06:34:38;;;;;;;18.92;3.53;;;;;;;12.34;100.00;101403.69;4935497;29;20031;-68
2022/10/13 06:37:03;;;;;;;13.68;3.67;;;;;;;12.37;100.00;101398.75;4929745;29;20063;-68
2022/10/13 06:39:28;;;;;;;22.65;3.92;;;;;;;12.40;100.00;101395.66;4925228;29;20043;-68
2022/10/13 06:41:54;;;;;;;17.05;3.10;;;;;;;12.42;100.00;101399.00;4952617;29;20103;-68
2022/10/13 06:44:19;;;;;;;18.17;3.20;;;;;;;12.42;100.00;101393.59;4952535;28;20121;-68
2022/10/13 06:46:45;;;;;;;15.45;3.03;;;;;;;12.46;100.00;101386.78;4952829;29;20040;-68
2022/10/13 06:49:10;;;;;;;17.92;3.45;;;;;;;12.48;100.00;101386.56;4952475;29;20503;-68
2022/10/13 06:51:36;;;;;;;16.48;3.55;;;;;;;12.52;100.00;101395.97;4950129;29;20434;-68
2022/10/13 06:54:01;;;;;;;20.83;3.42;;;;;;;12.51;100.00;101385.34;4919368;28;20031;-68
2022/10/13 06:56:28;;;;;;;21.98;3.70;;;;;;;12.53;100.00;101391.38;4955327;29;20055;-68
2022/10/13 06:58:54;;;;;;;19.58;2.80;;;;;;;12.44;100.00;101374.50;4956176;29;20038;-68
2022/10/13 07:01:20;;;;;;;20.73;3.28;;;;;;;12.59;100.00;101388.72;4945441;28;20035;-68
2022/10/13 07:03:53;;;;;;;20.70;3.22;;;;;;;12.63;100.00;101386.47;4939181;29;20576;-68
2022/10/13 07:06:18;;;;;;;18.55;3.50;;;;;;;12.64;100.00;101390.81;4956377;29;20114;-68
2022/10/13 07:08:44;;;;;;;22.05;3.20;;;;;;;12.63;100.00;101384.59;4956665;29;20098;-68
2022/10/13 07:11:12;;;;;;;16.33;2.97;;;;;;;12.68;100.00;101392.94;4939231;29;20041;-68
2022/10/13 07:13:39;;;;;;;11.90;2.72;;;;;;;12.71;100.00;101389.00;4938994;29;20457;-67
2022/10/13 07:16:05;;;;;;;14.85;2.78;;;;;;;12.75;100.00;101389.41;4956111;28;20066;-68
2022/10/13 07:18:31;;;;;;;19.58;3.30;;;;;;;12.65;100.00;101370.91;4924202;29;20094;-69
2022/10/13 07:20:58;;;;;;;14.82;3.25;;;;;;;12.67;100.00;101361.56;4939705;29;20069;-68
2022/10/13 07:23:25;;;;;;;21.27;3.10;;;;;;;12.61;100.00;101356.94;4939490;29;20024;-68
2022/10/13 07:25:50;;;;;;;17.33;3.25;;;;;;;12.58;100.00;101346.56;4939124;29;20043;-69
2022/10/13 07:28:16;;;;;;;16.05;3.20;;;;;;;12.86;100.00;101383.47;4957126;29;20402;-69
2022/10/13 07:30:44;;;;;;;19.95;3.38;;;;;;;12.87;100.00;101385.13;4939543;29;20062;-69
2022/10/13 07:33:10;;;;;;;15.40;3.08;;;;;;;12.86;100.00;101378.06;4939676;29;20517;-69
2022/10/13 07:35:39;;;;;;;17.95;3.22;;;;;;;12.89;100.00;101370.41;4923184;29;20031;-69
2022/10/13 07:38:05;;;;;;;16.88;2.75;;;;;;;12.89;100.00;101366.88;4939423;29;20055;-69
2022/10/13 07:40:31;;;;;;;20.05;3.13;;;;;;;12.83;100.00;101357.69;4955855;29;20479;-69
2022/10/13 07:42:56;;;;;;;13.80;3.03;;;;;;;13.02;100.00;101377.75;4938654;29;20035;-68
2022/10/13 07:45:22;;;;;;;20.70;3.28;;;;;;;12.83;100.00;101335.25;4922075;29;20443;-68
2022/10/13 07:47:48;;;;;;;13.93;2.80;;;;;;;13.09;100.00;101370.50;4938770;29;20487;-67
2022/10/13 07:50:13;;;;;;;16.17;3.35;;;;;;;13.09;100.00;101370.50;4939240;29;20035;-67
2022/10/13 07:52:38;;;;;;;15.65;3.03;;;;;;;13.16;100.00;101376.75;4938890;29;20045;-67
2022/10/13 07:55:05;;;;;;;20.17;3.50;;;;;;;13.19;100.00;101383.63;4955438;29;20375;-67
2022/10/13 07:57:30;;;;;;;17.80;3.03;;;;;;;13.26;100.00;101380.97;4954696;29;20042;-67
2022/10/13 07:59:55;;;;;;;18.67;3.20;;;;;;;13.24;100.00;101369.50;4955096;29;20039;-68
2022/10/13 08:02:21;;;;;;;19.38;3.30;;;;;;;13.31;100.00;101373.06;4954745;29;20038;-67
2022/10/13 08:04:46;;;;;;;26.33;3.85;;;;;;;13.33;100.00;101358.34;4955034;29;20035;-68
2022/10/13 08:07:12;;;;;;;20.60;2.97;;;;;;;13.28;100.00;101350.03;4954181;28;20034;-68
2022/10/13 08:09:37;;;;;;;15.93;3.10;;;;;;;13.35;100.00;101358.16;4937677;29;20454;-67
2022/10/13 08:12:03;;;;;;;13.15;2.60;;;;;;;13.39;100.00;101362.09;4937601;29;20043;-71
2022/10/13 08:14:29;;;;;;;19.92;3.20;;;;;;;13.45;100.00;101360.47;4954890;28;20027;-69
2022/10/13 08:16:56;;;;;;;18.85;3.17;;;;;;;13.50;100.00;101366.06;4955084;29;20457;-68
2022/10/13 08:19:25;;;;;;;17.33;2.72;;;;;;;13.35;100.00;101337.34;4955140;29;20094;-67
2022/10/13 08:21:51;;;;;;;17.27;3.00;;;;;;;13.55;100.00;101359.00;4954861;29;20106;-64
2022/10/13 08:24:17;;;;;;;14.93;2.92;;;;;;;13.57;100.00;101364.22;4937473;29;20102;-68
2022/10/13 08:26:45;;;;;;;18.77;3.67;;;;;;;13.40;100.00;101342.13;4918528;29;20480;-67
2022/10/13 08:29:11;;;;;;;21.35;3.40;;;;;;;13.62;100.00;101367.97;4951084;29;20125;-68
2022/10/13 08:31:37;;;;;;;12.52;3.20;;;;;;;13.69;100.00;101359.88;4938746;29;20030;-67
2022/10/13 08:34:05;;;;;;;16.70;2.85;;;;;;;13.80;100.00;101350.31;4937189;29;20043;-67
2022/10/13 08:36:30;;;;;;;16.88;3.03;;;;;;;13.81;100.00;101360.09;4937232;29;20039;-67
2022/10/13 08:38:56;;;;;;;15.02;3.00;;;;;;;13.84;100.00;101354.25;4954138;29;20031;-67
2022/10/13 08:41:28;;;;;;;15.27;2.85;;;;;;;13.87;100.00;101359.25;4954215;29;20047;-67
2022/10/13 08:44:03;;;;;;;17.98;3.15;;;;;;;13.80;100.00;101334.91;4936983;29;20027;-67
2022/10/13 08:46:38;;;;;;;21.02;2.95;;;;;;;14.01;100.00;101347.41;4954260;29;20043;-68
2022/10/13 08:49:04;;;;;;;16.60;4.38;;;;;;;14.07;100.00;101349.28;4954216;29;20129;-69
2022/10/13 08:51:30;;;;;;;16.50;3.25;;;;;;;14.14;100.00;101348.41;4953913;29;20576;-67
2022/10/13 08:53:56;;;;;;;19.92;3.00;;;;;;;14.16;100.00;101351.75;4936791;28;20035;-68
2022/10/13 08:56:29;;;;;;;18.27;3.88;;;;;;;14.17;100.00;101353.41;4921131;29;20134;-68
2022/10/13 08:58:56;;;;;;;18.10;3.42;;;;;;;14.10;100.00;101342.59;4953912;29;20027;-68
2022/10/13 09:01:24;;;;;;;19.50;3.25;;;;;;;14.15;100.00;101344.69;4954295;29;20486;-68
2022/10/13 09:03:54;;;;;;;12.82;3.10;;;;;;;14.14;100.00;101343.00;4954259;29;20027;-68
2022/10/13 09:06:42;;;;;;;23.00;3.50;;;;;;;14.05;100.00;101339.69;4937633;29;20082;-69
2022/10/13 09:09:14;;;;;;;16.73;3.38;;;;;;;13.98;100.00;101347.81;4943786;29;20051;-69
2022/10/13 09:11:45;;;;;;;20.15;3.60;;;;;;;13.82;100.00;101319.31;4938425;29;20031;-67
2022/10/13 09:14:21;;;;;;;16.95;3.42;;;;;;;13.99;100.00;101335.94;4954059;29;20454;-68
2022/10/13 09:16:48;;;;;;;20.40;3.80;;;;;;;13.99;100.00;101335.94;4953729;29;20027;-69
2022/10/13 09:19:28;;;;;;;14.45;3.40;;;;;;;14.03;100.00;101334.47;4952713;28;20031;-68
2022/10/13 09:22:14;;;;;;;15.07;2.88;;;;;;;14.12;100.00;101343.22;4953683;29;20102;-69
2022/10/13 09:24:39;;;;;;;19.98;4.05;;;;;;;14.08;100.00;101339.28;4953630;28;20059;-68
2022/10/13 09:27:12;;;;;;;17.80;3.03;;;;;;;14.22;100.00;101337.41;4953510;29;20075;-69
2022/10/13 09:29:38;;;;;;;16.75;2.85;;;;;;;14.27;100.00;101318.63;4935932;29;20517;-67
2022/10/13 09:32:24;;;;;;;11.13;2.90;;;;;;;14.63;100.00;101337.13;4953587;29;20038;-69
2022/10/13 09:34:51;;;;;;;14.95;3.42;;;;;;;14.76;100.00;101334.38;4936291;29;20043;-67
2022/10/13 09:37:23;;;;;;;14.98;2.83;;;;;;;14.85;100.00;101334.97;4936303;29;20525;-66
2022/10/13 09:40:19;;;;;;;17.20;2.90;;;;;;;14.81;100.00;101325.63;4936026;29;20134;-69
2022/10/13 09:42:51;;;;;;;14.93;2.97;;;;;;;14.58;100.00;101301.72;4953647;29;20038;-67
2022/10/13 09:45:21;;;;;;;14.80;2.95;;;;;;;14.60;100.00;101318.59;4936108;29;20126;-70
2022/10/13 09:47:55;;;;;;;13.55;2.75;;;;;;;14.61;100.00;101330.28;4953515;28;20081;-69
2022/10/13 09:50:29;;;;;;;13.30;2.42;;;;;;;14.47;100.00;101302.34;4936049;29;20027;-68
2022/10/13 09:53:24;;;;;;;13.02;2.75;;;;;;;14.60;100.00;101325.88;4936382;29;20046;-68
2022/10/13 09:56:19;;;;;;;18.10;3.30;;;;;;;14.57;100.00;101319.88;4922028;29;20509;-68
2022/10/13 09:59:13;;;;;;;13.43;2.67;;;;;;;14.63;100.00;101331.69;4953201;29;20133;-67
2022/10/13 10:01:43;;;;;;;14.20;3.00;;;;;;;14.64;100.00;101332.56;4937316;29;20038;-67
2022/10/13 10:04:15;;;;;;;14.20;2.97;;;;;;;14.65;100.00;101326.09;4935508;29;20324;-67
2022/10/13 10:06:42;;;;;;;10.82;2.78;;;;;;;14.49;100.00;101306.50;4935966;29;20506;-67
2022/10/13 10:09:32;;;;;;;13.93;2.85;;;;;;;14.60;100.00;101321.28;4935684;29;20049;-67
2022/10/13 10:11:59;;;;;;;11.70;3.00;;;;;;;14.63;100.00;101336.28;4939285;29;20031;-67
2022/10/13 10:14:31;;;;;;;18.27;3.80;;;;;;;14.68;100.00;101323.78;4935644;29;20090;-67
2022/10/13 10:17:40;;;;;;;21.20;3.33;;;;;;;14.72;100.00;101327.72;4935697;29;20425;-67
2022/10/13 10:20:05;;;;;;;13.73;3.05;;;;;;;14.79;100.00;101314.97;4881464;29;20040;-67
2022/10/13 10:22:42;;;;;;;15.25;3.10;;;;;;;14.78;100.00;101317.91;4893735;29;20043;-66
2022/10/13 10:25:08;;;;;;;12.90;2.50;;;;;;;14.90;100.00;101310.78;4877875;29;20051;-67
2022/10/13 10:27:33;;;;;;;15.65;3.22;;;;;;;14.91;100.00;101317.84;4893557;29;20041;-67
2022/10/13 10:30:14;;;;;;;18.20;3.40;;;;;;;14.89;100.00;101300.97;4895689;29;20112;-67
2022/10/13 10:32:51;;;;;;;17.98;2.90;;;;;;;15.15;100.00;101312.72;4948906;29;20406;-67
2022/10/13 10:35:23;;;;;;;17.90;3.58;;;;;;;15.21;100.00;101307.28;4956652;29;20027;-67
2022/10/13 10:38:11;;;;;;;13.18;2.83;;;;;;;15.25;99.74;101307.66;4956658;29;20034;-68
2022/10/13 10:40:47;;;;;;;20.40;3.65;;;;;;;15.16;99.38;101315.22;4951221;29;20037;-65
2022/10/13 10:43:31;;;;;;;16.73;3.40;;;;;;;15.18;99.00;101313.13;4956590;28;20045;-67
2022/10/13 10:45:58;;;;;;;15.60;3.45;;;;;;;15.29;98.63;101303.47;4942863;29;20050;-68
2022/10/13 10:48:45;;;;;;;12.00;3.05;;;;;;;15.33;98.02;101299.28;4956274;29;20031;-67
2022/10/13 10:51:13;;;;;;;14.82;2.97;;;;;;;15.32;98.23;101303.03;4956258;29;20391;-68
2022/10/13 10:53:51;;;;;;;11.73;3.03;;;;;;;15.31;98.41;101298.66;4923289;29;20035;-68
2022/10/13 10:56:29;;;;;;;19.25;3.15;;;;;;;15.30;97.63;101294.31;4956393;29;20020;-68
2022/10/13 10:59:03;;;;;;;17.92;3.40;;;;;;;15.28;97.81;101297.22;4956351;29;20379;-70
2022/10/13 11:02:07;;;;;;;12.88;3.05;;;;;;;15.43;97.38;101291.50;4956180;29;20035;-69
2022/10/13 11:04:47;;;;;;;20.30;3.45;;;;;;;15.16;98.05;101281.88;4920692;29;20034;-67
2022/10/13 11:07:12;;;;;;;11.93;3.25;;;;;;;15.10;98.38;101288.16;4938826;29;20031;-67
2022/10/13 11:09:41;;;;;;;13.63;2.80;;;;;;;15.15;98.75;101289.16;4938653;29;20035;-68
2022/10/13 11:12:44;;;;;;;14.52;2.92;;;;;;;15.24;98.11;101278.91;4957861;29;20065;-67
2022/10/13 11:15:13;;;;;;;17.00;3.00;;;;;;;15.28;98.16;101283.66;4955967;29;20387;-67
2022/10/13 11:17:40;;;;;;;14.45;3.90;;;;;;;14.73;98.44;101218.31;4955805;29;20047;-69
2022/10/13 11:20:32;;;;;;;13.93;3.20;;;;;;;15.12;98.30;101286.06;4955700;29;20402;-68
2022/10/13 11:22:58;;;;;;;15.00;3.45;;;;;;;15.18;98.21;101285.19;4890682;29;20047;-68